createdAt,value
2019-01-23T00:00:52.936Z,1.91
2019-01-23T00:03:20.175Z,1.89
2019-01-23T00:05:47.635Z,1.84
2019-01-23T00:08:14.892Z,1.90
2019-01-23T00:10:42.137Z,1.90
2019-01-23T00:13:09.419Z,1.96
2019-01-23T00:15:36.662Z,1.93
2019-01-23T00:18:04.020Z,1.94
2019-01-23T00:20:31.243Z,1.88
2019-01-23T00:22:58.484Z,1.93
2019-01-23T00:25:25.805Z,1.91
2019-01-23T00:27:53.034Z,1.90
2019-01-23T00:30:20.397Z,1.89
2019-01-23T00:32:47.666Z,1.73
2019-01-23T00:35:14.912Z,1.81
2019-01-23T00:37:42.170Z,1.81
2019-01-23T00:40:09.690Z,1.76
2019-01-23T00:42:36.979Z,1.67
2019-01-23T00:45:05.789Z,1.63
2019-01-23T00:47:33.090Z,1.65
2019-01-23T00:50:00.357Z,1.68
2019-01-23T00:52:27.731Z,1.73
2019-01-23T00:54:55.008Z,1.80
2019-01-23T00:57:22.276Z,1.84
2019-01-23T00:59:49.526Z,1.78
2019-01-23T01:02:16.785Z,1.83
2019-01-23T01:04:44.112Z,1.87
2019-01-23T01:07:11.674Z,1.88
2019-01-23T01:09:39.184Z,1.87
2019-01-23T01:12:06.466Z,1.84
2019-01-23T01:14:33.771Z,1.77
2019-01-23T01:17:00.996Z,1.84
2019-01-23T01:19:28.545Z,1.85
2019-01-23T01:21:55.802Z,1.88
2019-01-23T01:24:23.223Z,1.89
2019-01-23T01:26:50.450Z,1.94
2019-01-23T01:29:17.740Z,1.95
2019-01-23T01:31:44.981Z,1.97
2019-01-23T01:34:12.210Z,1.93
2019-01-23T01:36:39.583Z,1.95
2019-01-23T01:39:08.043Z,1.97
2019-01-23T01:41:35.630Z,1.98
2019-01-23T01:44:02.966Z,1.97
2019-01-23T01:46:30.290Z,1.99
2019-01-23T01:48:57.556Z,2.00
2019-01-23T01:51:24.830Z,2.04
2019-01-23T01:53:52.374Z,2.05
2019-01-23T01:56:19.612Z,2.06
2019-01-23T01:58:46.866Z,2.02
2019-01-23T02:01:14.117Z,1.92
2019-01-23T02:03:41.365Z,2.00
2019-01-23T02:06:08.726Z,2.03
2019-01-23T02:08:35.953Z,2.02
2019-01-23T02:11:03.444Z,2.05
2019-01-23T02:13:30.706Z,2.07
2019-01-23T02:15:57.945Z,2.11
2019-01-23T02:18:25.237Z,2.11
2019-01-23T02:20:52.561Z,2.12
2019-01-23T02:23:19.782Z,1.95
2019-01-23T02:25:47.033Z,2.02
2019-01-23T02:28:14.273Z,2.03
2019-01-23T02:30:41.571Z,2.03
2019-01-23T02:33:08.818Z,2.05
2019-01-23T02:35:36.074Z,2.04
2019-01-23T02:38:03.465Z,2.09
2019-01-23T02:40:30.697Z,2.10
2019-01-23T02:42:57.945Z,2.13
2019-01-23T02:45:25.288Z,2.16
2019-01-23T02:47:52.515Z,2.07
2019-01-23T02:50:19.827Z,2.09
2019-01-23T02:52:47.066Z,2.09
2019-01-23T02:55:14.280Z,2.09
2019-01-23T02:57:41.525Z,2.04
2019-01-23T03:00:11.744Z,2.05
2019-01-23T03:02:39.054Z,2.00
2019-01-23T03:05:08.894Z,1.92
2019-01-23T03:07:36.144Z,1.95
2019-01-23T03:10:05.491Z,1.77
2019-01-23T03:12:32.763Z,1.86
2019-01-23T03:15:00.034Z,1.89
2019-01-23T03:17:27.266Z,1.98
2019-01-23T03:19:54.639Z,1.97
2019-01-23T03:22:21.889Z,1.95
2019-01-23T03:24:49.130Z,1.93
2019-01-23T03:27:16.394Z,1.95
2019-01-23T03:29:43.626Z,1.85
2019-01-23T03:32:10.846Z,1.89
2019-01-23T03:34:38.103Z,1.76
2019-01-23T03:37:05.346Z,1.78
2019-01-23T03:39:32.589Z,1.61
2019-01-23T03:41:59.933Z,1.71
2019-01-23T03:44:27.185Z,1.80
2019-01-23T03:46:54.440Z,1.85
2019-01-23T03:49:21.681Z,1.89
2019-01-23T03:51:48.967Z,1.86
2019-01-23T03:54:16.237Z,1.86
2019-01-23T03:56:44.179Z,1.90
2019-01-23T03:59:11.390Z,1.89
2019-01-23T04:01:38.651Z,1.88
2019-01-23T04:04:05.993Z,1.82
2019-01-23T04:06:33.255Z,1.81
2019-01-23T04:09:00.638Z,1.80
2019-01-23T04:11:27.847Z,1.78
2019-01-23T04:13:55.101Z,1.80
2019-01-23T04:16:22.397Z,1.84
2019-01-23T04:18:49.650Z,1.79
2019-01-23T04:21:16.861Z,1.83
2019-01-23T04:23:44.140Z,1.84
2019-01-23T04:26:11.345Z,1.86
2019-01-23T04:28:38.562Z,1.88
2019-01-23T04:31:05.829Z,1.84
2019-01-23T04:33:33.128Z,1.88
2019-01-23T04:36:00.345Z,1.77
2019-01-23T04:38:27.575Z,1.84
2019-01-23T04:40:54.791Z,1.85
2019-01-23T04:43:22.050Z,1.84
2019-01-23T04:45:49.265Z,1.85
2019-01-23T04:48:16.561Z,1.75
2019-01-23T04:51:15.175Z,1.81
2019-01-23T04:53:44.507Z,1.86
2019-01-23T04:56:11.706Z,1.87
2019-01-23T04:58:38.931Z,1.85
2019-01-23T05:01:06.170Z,1.87
2019-01-23T05:03:33.396Z,1.88
2019-01-23T05:06:01.423Z,1.82
2019-01-23T05:08:28.698Z,1.83
2019-01-23T05:10:55.923Z,1.84
2019-01-23T05:13:23.135Z,1.69
2019-01-23T05:15:50.394Z,1.79
2019-01-23T05:18:17.607Z,1.77
2019-01-23T05:20:44.867Z,1.85
2019-01-23T05:23:12.068Z,1.84
2019-01-23T05:25:39.281Z,1.67
2019-01-23T05:28:06.527Z,1.72
2019-01-23T05:30:33.807Z,1.79
2019-01-23T05:33:01.019Z,1.84
2019-01-23T05:35:28.270Z,1.85
2019-01-23T05:37:55.447Z,1.78
2019-01-23T05:40:22.700Z,1.78
2019-01-23T05:42:49.925Z,1.86
2019-01-23T05:45:17.144Z,1.82
2019-01-23T05:47:44.369Z,1.83
2019-01-23T05:50:14.072Z,1.89
2019-01-23T05:52:41.390Z,1.94
2019-01-23T05:55:09.668Z,1.92
2019-01-23T05:57:36.897Z,1.92
2019-01-23T06:00:05.870Z,1.96
2019-01-23T06:02:33.108Z,1.95
2019-01-23T06:05:00.307Z,1.71
2019-01-23T06:07:27.540Z,1.84
2019-01-23T06:09:54.757Z,1.90
2019-01-23T06:12:22.060Z,1.92
2019-01-23T06:14:49.303Z,1.87
2019-01-23T06:17:16.527Z,1.92
2019-01-23T06:19:43.743Z,1.95
2019-01-23T06:22:11.009Z,1.95
2019-01-23T06:24:38.232Z,1.94
2019-01-23T06:27:05.427Z,1.95
2019-01-23T06:29:32.694Z,1.95
2019-01-23T06:31:59.906Z,1.94
2019-01-23T06:34:27.104Z,1.90
2019-01-23T06:36:54.827Z,1.92
2019-01-23T06:39:22.024Z,1.81
2019-01-23T06:41:49.227Z,1.82
2019-01-23T06:44:16.467Z,1.86
2019-01-23T06:46:43.764Z,1.86
2019-01-23T06:49:10.996Z,1.89
2019-01-23T06:51:38.193Z,1.93
2019-01-23T06:54:05.423Z,1.95
2019-01-23T06:56:32.828Z,1.96
2019-01-23T06:59:00.054Z,1.92
2019-01-23T07:01:27.271Z,1.82
2019-01-23T07:03:54.468Z,1.86
2019-01-23T07:06:21.687Z,1.90
2019-01-23T07:08:48.972Z,1.92
2019-01-23T07:11:16.217Z,1.95
2019-01-23T07:13:43.427Z,1.87
2019-01-23T07:16:10.729Z,1.12
2019-01-23T07:19:04.472Z,1.01
2019-01-23T07:21:31.833Z,0.94
2019-01-23T07:23:59.141Z,0.90
2019-01-23T07:26:26.368Z,0.89
2019-01-23T07:28:53.623Z,0.93
2019-01-23T07:31:20.847Z,0.66
2019-01-23T07:33:48.113Z,0.75
2019-01-23T07:36:15.350Z,1.00
2019-01-23T07:38:42.558Z,1.11
2019-01-23T07:41:09.807Z,1.18
2019-01-23T07:43:37.124Z,1.07
2019-01-23T07:46:04.586Z,1.13
2019-01-23T07:48:31.817Z,1.05
2019-01-23T07:50:59.016Z,0.96
2019-01-23T07:53:26.272Z,0.94
2019-01-23T07:55:53.484Z,0.96
2019-01-23T07:58:20.701Z,0.98
2019-01-23T08:00:47.926Z,1.13
2019-01-23T08:03:15.143Z,1.01
2019-01-23T08:05:42.366Z,1.14
2019-01-23T08:08:09.623Z,1.15
2019-01-23T08:10:36.795Z,1.01
2019-01-23T08:13:04.277Z,0.92
2019-01-23T08:15:34.073Z,1.03
2019-01-23T08:18:02.355Z,1.04
2019-01-23T08:20:29.839Z,1.01
2019-01-23T08:22:57.091Z,0.78
2019-01-23T08:25:24.912Z,0.64
2019-01-23T08:27:52.292Z,0.54
2019-01-23T08:30:20.211Z,0.48
2019-01-23T08:32:47.483Z,0.43
2019-01-23T08:35:15.037Z,0.66
2019-01-23T08:37:42.260Z,0.73
2019-01-23T08:40:11.448Z,0.40
2019-01-23T08:42:38.783Z,0.49
2019-01-23T08:45:07.184Z,0.62
2019-01-23T08:47:34.514Z,0.40
2019-01-23T08:50:01.731Z,0.52
2019-01-23T08:52:29.738Z,0.37
2019-01-23T08:54:56.975Z,0.56
2019-01-23T08:57:24.184Z,0.84
2019-01-23T08:59:51.443Z,0.77
2019-01-23T09:02:18.662Z,0.54
2019-01-23T09:04:46.046Z,0.40
2019-01-23T09:07:13.330Z,0.46
2019-01-23T09:09:40.544Z,0.60
2019-01-23T09:12:08.686Z,0.75
2019-01-23T09:14:36.207Z,0.50
2019-01-23T09:17:03.617Z,0.26
2019-01-23T09:19:30.822Z,0.16
2019-01-23T09:21:58.295Z,0.41
2019-01-23T09:24:25.522Z,0.23
2019-01-23T09:26:52.717Z,0.23
2019-01-23T09:29:20.045Z,0.15
2019-01-23T09:32:38.141Z,0.19
2019-01-23T09:35:43.820Z,0.18
2019-01-23T09:39:03.818Z,0.04
2019-01-23T09:42:07.154Z,0.38
2019-01-23T09:45:09.367Z,0.45
2019-01-23T09:47:53.602Z,0.63
2019-01-23T09:51:07.944Z,0.63
2019-01-23T09:53:43.715Z,0.81
2019-01-23T09:56:13.072Z,0.80
2019-01-23T09:58:40.323Z,1.01
2019-01-23T10:01:07.543Z,1.09
2019-01-23T10:03:34.772Z,1.22
2019-01-23T10:06:02.017Z,1.16
2019-01-23T10:08:29.323Z,0.95
2019-01-23T10:10:56.601Z,0.66
2019-01-23T10:13:23.799Z,0.42
2019-01-23T10:16:01.077Z,0.24
2019-01-23T10:18:28.300Z,0.30
2019-01-23T10:20:55.644Z,0.30
2019-01-23T10:23:22.915Z,0.37
2019-01-23T10:25:50.147Z,0.31
2019-01-23T10:28:17.373Z,0.17
2019-01-23T10:30:44.618Z,0.36
2019-01-23T10:33:11.827Z,0.65
2019-01-23T10:35:39.966Z,0.54
2019-01-23T10:38:07.228Z,0.36
2019-01-23T10:40:37.361Z,0.47
2019-01-23T10:43:04.982Z,0.09
2019-01-23T10:45:32.240Z,0.67
2019-01-23T10:47:59.500Z,0.33
2019-01-23T10:50:27.071Z,0.02
2019-01-23T10:52:54.320Z,0.10
2019-01-23T10:55:21.580Z,0.12
2019-01-23T10:57:48.911Z,0.18
2019-01-23T11:00:17.318Z,0.35
2019-01-23T11:02:44.564Z,0.42
2019-01-23T11:05:14.684Z,0.34
2019-01-23T11:07:41.951Z,0.27
2019-01-23T11:10:12.287Z,-0.07
2019-01-23T11:12:39.701Z,0.09
2019-01-23T11:15:07.096Z,0.25
2019-01-23T11:17:34.325Z,0.21
2019-01-23T11:20:01.648Z,0.47
2019-01-23T11:22:29.030Z,0.59
2019-01-23T11:24:56.330Z,0.69
2019-01-23T11:27:23.578Z,0.62
2019-01-23T11:29:50.786Z,0.67
2019-01-23T11:32:17.995Z,0.71
2019-01-23T11:34:45.262Z,0.76
2019-01-23T11:37:12.457Z,0.56
2019-01-23T11:39:39.802Z,0.86
2019-01-23T11:42:07.056Z,0.90
2019-01-23T11:44:34.258Z,0.89
2019-01-23T11:47:01.603Z,1.14
2019-01-23T11:49:28.859Z,0.88
2019-01-23T11:51:56.128Z,0.55
2019-01-23T11:54:23.688Z,0.63
2019-01-23T11:56:51.320Z,0.67
2019-01-23T11:59:18.505Z,0.83
2019-01-23T12:01:46.136Z,0.38
2019-01-23T12:04:13.412Z,0.48
2019-01-23T12:06:40.615Z,0.13
2019-01-23T12:09:09.114Z,0.37
2019-01-23T12:11:36.480Z,0.42
2019-01-23T12:14:03.999Z,0.36
2019-01-23T12:16:31.298Z,0.67
2019-01-23T12:18:58.530Z,0.80
2019-01-23T12:21:25.729Z,0.81
2019-01-23T12:23:58.236Z,0.85
2019-01-23T12:26:22.091Z,0.83
2019-01-23T12:28:49.382Z,0.75
2019-01-23T12:31:16.601Z,1.03
2019-01-23T12:33:43.832Z,0.82
2019-01-23T12:36:11.114Z,1.13
2019-01-23T12:38:40.062Z,0.97
2019-01-23T12:41:07.268Z,1.07
2019-01-23T12:43:34.608Z,0.57
2019-01-23T12:46:01.890Z,0.92
2019-01-23T12:48:29.135Z,0.69
2019-01-23T12:50:56.485Z,0.85
2019-01-23T12:53:23.709Z,0.81
2019-01-23T12:55:50.896Z,0.68
2019-01-23T12:58:18.115Z,0.53
2019-01-23T13:00:45.431Z,0.30
2019-01-23T13:03:12.705Z,0.33
2019-01-23T13:05:39.929Z,0.59
2019-01-23T13:08:07.387Z,0.66
2019-01-23T13:10:34.869Z,0.77
2019-01-23T13:13:02.124Z,0.78
2019-01-23T13:15:29.338Z,0.50
2019-01-23T13:17:57.029Z,0.59
2019-01-23T13:20:25.090Z,0.71
2019-01-23T13:22:52.695Z,0.53
2019-01-23T13:25:22.091Z,0.56
2019-01-23T13:27:50.284Z,0.59
2019-01-23T13:30:19.400Z,0.25
2019-01-23T13:32:46.641Z,0.25
2019-01-23T13:35:15.508Z,0.34
2019-01-23T13:37:43.085Z,0.30
2019-01-23T13:40:17.849Z,0.64
2019-01-23T13:42:45.220Z,0.66
2019-01-23T13:45:13.021Z,0.54
2019-01-23T13:47:40.266Z,0.73
2019-01-23T13:50:08.343Z,0.81
2019-01-23T13:52:35.622Z,0.84
2019-01-23T13:55:04.153Z,0.28
2019-01-23T13:57:31.400Z,0.39
2019-01-23T13:59:58.621Z,0.34
2019-01-23T14:02:25.811Z,0.41
2019-01-23T14:04:53.028Z,0.48
2019-01-23T14:07:20.245Z,0.33
2019-01-23T14:09:47.499Z,0.10
2019-01-23T14:12:14.710Z,0.20
2019-01-23T14:14:42.023Z,0.30
2019-01-23T14:17:09.273Z,0.15
2019-01-23T14:19:36.511Z,0.34
2019-01-23T14:22:04.010Z,0.38
2019-01-23T14:24:31.282Z,0.52
2019-01-23T14:26:58.512Z,0.30
2019-01-23T14:29:25.753Z,0.34
2019-01-23T14:31:53.404Z,0.51
2019-01-23T14:34:20.809Z,0.46
2019-01-23T14:36:48.007Z,0.60
2019-01-23T14:39:15.250Z,0.63
2019-01-23T14:41:42.527Z,0.69
2019-01-23T14:44:09.805Z,0.80
2019-01-23T14:46:37.144Z,0.77
2019-01-23T14:49:04.511Z,0.82
2019-01-23T14:51:31.849Z,0.66
2019-01-23T14:53:59.044Z,0.76
2019-01-23T14:56:26.264Z,0.68
2019-01-23T14:58:53.492Z,0.28
2019-01-23T15:01:20.722Z,0.52
2019-01-23T15:03:48.007Z,0.63
2019-01-23T15:06:15.333Z,0.76
2019-01-23T15:08:42.554Z,0.81
2019-01-23T15:11:09.827Z,0.79
2019-01-23T15:13:37.063Z,0.89
2019-01-23T15:16:04.437Z,0.89
2019-01-23T15:18:31.646Z,1.00
2019-01-23T15:21:00.991Z,0.99
2019-01-23T15:23:28.273Z,0.96
2019-01-23T15:25:55.857Z,0.99
2019-01-23T15:28:23.177Z,0.95
2019-01-23T15:30:50.433Z,0.97
2019-01-23T15:33:17.688Z,0.94
2019-01-23T15:35:44.908Z,0.72
2019-01-23T15:38:12.147Z,0.76
2019-01-23T15:40:39.461Z,0.85
2019-01-23T15:43:06.682Z,1.00
2019-01-23T15:45:34.054Z,0.91
2019-01-23T15:48:01.292Z,0.91
2019-01-23T15:50:28.560Z,0.92
2019-01-23T15:52:55.843Z,0.95
2019-01-23T15:55:24.145Z,0.99
2019-01-23T15:57:51.392Z,0.98
2019-01-23T16:00:24.121Z,1.01
2019-01-23T16:02:51.460Z,0.91
2019-01-23T16:05:18.875Z,1.06
2019-01-23T16:07:46.185Z,1.10
2019-01-23T16:10:16.206Z,1.07
2019-01-23T16:12:43.555Z,1.05
2019-01-23T16:15:11.151Z,1.11
2019-01-23T16:17:38.480Z,1.11
2019-01-23T16:20:06.328Z,1.07
2019-01-23T16:22:34.069Z,1.13
2019-01-23T16:25:01.882Z,1.04
2019-01-23T16:27:29.520Z,1.13
2019-01-23T16:29:56.817Z,0.98
2019-01-23T16:32:31.320Z,0.98
2019-01-23T16:34:54.136Z,0.97
2019-01-23T16:37:21.383Z,1.09
2019-01-23T16:39:48.587Z,1.18
2019-01-23T16:42:15.926Z,1.21
2019-01-23T16:44:43.139Z,1.14
2019-01-23T16:47:10.380Z,1.05
2019-01-23T16:49:37.648Z,0.91
2019-01-23T16:52:04.852Z,0.96
2019-01-23T16:54:32.121Z,0.95
2019-01-23T16:56:59.374Z,0.79
2019-01-23T16:59:26.912Z,0.79
2019-01-23T17:01:54.432Z,0.88
2019-01-23T17:04:21.654Z,0.97
2019-01-23T17:06:48.855Z,0.90
2019-01-23T17:09:16.094Z,0.98
2019-01-23T17:11:43.308Z,1.06
2019-01-23T17:14:10.554Z,0.99
2019-01-23T17:16:38.116Z,1.03
2019-01-23T17:19:05.316Z,1.10
2019-01-23T17:21:32.570Z,1.03
2019-01-23T17:23:59.766Z,1.00
2019-01-23T17:26:27.184Z,0.99
2019-01-23T17:28:54.384Z,1.03
2019-01-23T17:31:21.968Z,0.92
2019-01-23T17:33:49.312Z,1.13
2019-01-23T17:36:16.516Z,1.14
2019-01-23T17:38:43.976Z,1.16
2019-01-23T17:41:11.357Z,1.14
2019-01-23T17:43:38.852Z,0.95
2019-01-23T17:46:06.245Z,1.04
2019-01-23T17:48:34.093Z,1.05
2019-01-23T17:51:01.365Z,1.00
2019-01-23T17:53:28.703Z,1.01
2019-01-23T17:55:56.026Z,0.77
2019-01-23T17:58:23.248Z,0.53
2019-01-23T18:00:54.543Z,0.16
2019-01-23T18:03:22.370Z,0.24
2019-01-23T18:05:51.302Z,0.02
2019-01-23T18:08:18.733Z,-0.05
2019-01-23T18:10:45.983Z,0.05
2019-01-23T18:13:13.252Z,0.02
2019-01-23T18:15:40.538Z,-0.38
2019-01-23T18:18:08.403Z,-0.47
2019-01-23T18:20:35.671Z,-0.37
2019-01-23T18:23:02.995Z,-0.67
2019-01-23T18:25:30.211Z,-0.70
2019-01-23T18:27:58.077Z,-0.55
2019-01-23T18:30:31.508Z,-0.56
2019-01-23T18:33:00.299Z,-0.61
2019-01-23T18:35:48.607Z,-0.89
2019-01-23T18:38:23.730Z,-0.96
2019-01-23T18:41:25.311Z,-0.91
2019-01-23T18:44:23.211Z,-0.94
2019-01-23T18:47:33.822Z,-1.12
2019-01-23T18:50:26.245Z,-0.98
2019-01-23T18:52:53.502Z,-0.79
2019-01-23T18:55:22.483Z,-0.77
2019-01-23T18:57:49.737Z,-0.98
2019-01-23T19:00:18.758Z,-0.79
2019-01-23T19:02:45.973Z,-0.67
2019-01-23T19:05:15.881Z,-0.82
2019-01-23T19:07:43.122Z,-1.17
2019-01-23T19:10:11.609Z,-1.13
2019-01-23T19:12:38.814Z,-1.12
2019-01-23T19:15:07.757Z,-1.12
2019-01-23T19:17:34.979Z,-1.28
2019-01-23T19:20:03.520Z,-1.28
2019-01-23T19:22:30.730Z,-1.34
2019-01-23T19:24:57.926Z,-1.33
2019-01-23T19:27:25.410Z,-1.49
2019-01-23T19:29:52.630Z,-1.19
2019-01-23T19:32:21.035Z,-1.21
2019-01-23T19:34:48.497Z,-1.34
2019-01-23T19:37:15.873Z,-1.32
2019-01-23T19:39:43.431Z,-1.10
2019-01-23T19:42:11.701Z,-1.21
2019-01-23T19:44:38.935Z,-1.38
2019-01-23T19:47:06.169Z,-1.56
2019-01-23T19:49:33.460Z,-1.65
2019-01-23T19:52:00.758Z,-1.56
2019-01-23T19:54:28.004Z,-1.62
2019-01-23T19:56:55.231Z,-1.47
2019-01-23T19:59:24.233Z,-1.67
2019-01-23T20:01:51.504Z,-1.16
2019-01-23T20:04:18.736Z,-0.96
2019-01-23T20:06:45.952Z,-0.98
2019-01-23T20:09:13.212Z,-0.93
2019-01-23T20:11:40.505Z,-0.77
2019-01-23T20:14:07.747Z,-1.11
2019-01-23T20:16:35.019Z,-1.01
2019-01-23T20:19:05.166Z,-0.77
2019-01-23T20:21:32.369Z,-0.63
2019-01-23T20:23:59.800Z,-0.93
2019-01-23T20:26:31.644Z,-0.97
2019-01-23T20:28:58.896Z,-1.14
2019-01-23T20:31:26.202Z,-1.14
2019-01-23T20:33:53.476Z,-0.94
2019-01-23T20:36:20.859Z,-0.97
2019-01-23T20:38:48.078Z,-1.17
2019-01-23T20:41:15.300Z,-1.17
2019-01-23T20:43:42.491Z,-0.98
2019-01-23T20:46:09.719Z,-0.81
2019-01-23T20:48:37.027Z,-0.73
2019-01-23T20:51:04.387Z,-0.61
2019-01-23T20:53:31.647Z,-0.63
2019-01-23T20:55:58.908Z,-0.55
2019-01-23T20:58:26.167Z,-0.46
2019-01-23T21:00:53.439Z,-0.48
2019-01-23T21:03:20.709Z,-0.86
2019-01-23T21:05:47.945Z,-0.79
2019-01-23T21:08:15.293Z,-0.57
2019-01-23T21:10:42.528Z,-0.49
2019-01-23T21:13:09.808Z,-0.57
2019-01-23T21:15:37.061Z,-0.37
2019-01-23T21:18:05.087Z,-0.33
2019-01-23T21:20:34.840Z,-0.26
2019-01-23T21:23:02.055Z,-0.24
2019-01-23T21:25:29.324Z,-0.40
2019-01-23T21:27:56.673Z,-0.38
2019-01-23T21:30:25.204Z,-0.37
2019-01-23T21:32:52.438Z,-0.53
2019-01-23T21:35:20.324Z,-0.66
2019-01-23T21:37:47.798Z,-0.53
2019-01-23T21:40:17.447Z,-0.38
2019-01-23T21:42:44.902Z,-0.31
2019-01-23T21:45:12.557Z,-0.30
2019-01-23T21:47:39.948Z,-0.50
2019-01-23T21:50:10.247Z,-0.37
2019-01-23T21:52:37.522Z,-0.31
2019-01-23T21:55:05.687Z,-0.24
2019-01-23T21:57:32.933Z,-0.36
2019-01-23T22:00:00.212Z,-0.63
2019-01-23T22:02:27.417Z,-0.56
2019-01-23T22:04:54.682Z,-0.55
2019-01-23T22:07:21.915Z,-0.70
2019-01-23T22:09:49.119Z,-0.56
2019-01-23T22:12:16.361Z,-0.43
2019-01-23T22:14:43.582Z,-0.33
2019-01-23T22:17:10.828Z,-0.66
2019-01-23T22:19:38.092Z,-0.80
2019-01-23T22:22:05.752Z,-1.01
2019-01-23T22:24:33.018Z,-0.78
2019-01-23T22:27:00.245Z,-0.60
2019-01-23T22:29:27.427Z,-0.88
2019-01-23T22:31:54.694Z,-0.92
2019-01-23T22:34:21.891Z,-1.40
2019-01-23T22:36:49.103Z,-1.61
2019-01-23T22:39:16.392Z,-1.63
2019-01-23T22:41:43.552Z,-1.52
2019-01-23T22:44:10.764Z,-1.96
2019-01-23T22:46:38.051Z,-1.91
2019-01-23T22:49:05.229Z,-2.02
2019-01-23T22:51:32.481Z,-2.06
2019-01-23T22:53:59.698Z,-1.82
2019-01-23T22:56:26.918Z,-1.99
2019-01-23T22:58:54.158Z,-2.36
2019-01-23T23:01:27.163Z,-2.12
2019-01-23T23:03:54.524Z,-2.16
2019-01-23T23:06:22.418Z,-2.09
2019-01-23T23:08:50.607Z,-2.40
2019-01-23T23:11:17.904Z,-2.43
2019-01-23T23:13:45.151Z,-2.10
2019-01-23T23:16:12.372Z,-2.46
2019-01-23T23:18:39.644Z,-2.23
2019-01-23T23:21:06.867Z,-2.53
2019-01-23T23:23:34.083Z,-2.28
2019-01-23T23:26:01.339Z,-2.15
2019-01-23T23:28:28.537Z,-1.80
2019-01-23T23:30:55.835Z,-1.76
2019-01-23T23:33:23.073Z,-1.69
2019-01-23T23:35:50.272Z,-1.61
2019-01-23T23:38:17.526Z,-1.73
2019-01-23T23:40:44.944Z,-1.59
2019-01-23T23:43:12.186Z,-1.46
2019-01-23T23:45:39.424Z,-1.31
2019-01-23T23:48:06.732Z,-1.20
2019-01-23T23:50:36.418Z,-1.13
2019-01-23T23:53:03.935Z,-1.09
2019-01-23T23:55:31.573Z,-1.03
2019-01-23T23:57:58.803Z,-1.01
